TNCMTFFR

Guest
Details From TNCM - St Maarten - Princess Juliana Intl
To TFFR - Pointe a Pitre Le Raizet
Flight Number -
Tags generated
Created
Modified
Stats Distance 140 nm / 260 km
Max Altitude 8,900 ft / 2,713 m
Waypoints 3
Social Downloads 0
Likes 0
Share VATSIM

Download

Looking for another format? Having issues loading an existing format? Contact us
Advertisement - Login to hide

Notes

Basic altitude profile: - Ascent Rate: 2500ft/min - Ascent Speed: 250kts - Cruise Altitude: 10000ft - Cruise Speed: 330kts - Descent Rate: 1500ft/min - Descent Speed: 250kts

Route

TNCM BIMBO TFFR

ID Type Via Altitude Latitude Longitude Leg Dist Tot Dist Heading (true) Name
O TNCM APT - 0 ft / 0 m 18.04089˚ -63.10897˚ - 0 nm - St Maarten - Princess Juliana Intl
BIMBO FIX - 8,900 ft / 2,713 m 16.62667˚ -61.96028˚ 107 nm 107 nm 142° / 142° -
O TFFR APT - 0 ft / 0 m 16.26531˚ -61.53181˚ 32 nm 140 nm 131° / 131° Pointe a Pitre Le Raizet

Altitude Profile

Advertisement - Login to hide

TNCM

Details ICAO TNCM (SXM)
Name St Maarten - Princess Juliana Intl
Region Caribbean Netherlands, Aruba, Curaçao, Sint Maarten
Timezone Unknown (UTC+0.0)
Stats Elevation 12 ft / 4 m (AMSL)
Location 18.040889° -63.108974°
Runways 1
Magnetic Variation 14.325° W

METAR

TNCM 130100Z 09004KT 060V120 CAVOK 26/21 Q1015 A2997

Decode

TAF

TAF TNCM 122320Z 1300/1324 13007KT P6SM FEW020 FM131500 15008KT P6SM SCT030

Decode

Departure Runways

ID Width Length Bearing (true) Bearing (mag) Surface Threshold Offset Overrun Length
10 148 ft / 45 m 7,464 ft / 2,275 m 81.43° 95.75° Asphalt 0 ft / 0 m 151 ft / 46 m
28 148 ft / 45 m 7,464 ft / 2,275 m 261.44° 275.76° Asphalt 397 ft / 121 m 0 ft / 0 m

TFFR

Details ICAO TFFR (PTP)
Name Pointe a Pitre Le Raizet
Region France (Guadeloupe, Martinique, Saint Barthélemy, Saint Martin)
Timezone America/Guadeloupe (UTC-4.0)
Stats Elevation 35 ft / 11 m (AMSL)
Location 16.265306° -61.531808°
Runways 1
Magnetic Variation 14.857° W

METAR

TFFR 130200Z AUTO 00000KT CAVOK 23/20 Q1014

Decode

TAF

TAF TFFR 122223Z 1222/1318 CNL

Decode

Destination Runways

ID Width Length Bearing (true) Bearing (mag) Surface Threshold Offset Overrun Length
11 148 ft / 45 m 11,513 ft / 3,509 m 100.94° 115.80° Asphalt 0 ft / 0 m 0 ft / 0 m
29 148 ft / 45 m 11,513 ft / 3,509 m 280.95° 295.81° Asphalt 0 ft / 0 m 0 ft / 0 m

Approach Navaids

Runway Type Ident Frequency Range Bearing (true) Bearing (mag) Slope Elevation
11 Localiser PP 110.30 MHz 18 nm / 33 km 100.95° 115.81° - 36 ft / 11 m (AMSL)
11 Glidescope PP 110.30 MHz 10 nm / 19 km 100.94° 115.80° 3.20° 36 ft / 11 m (AMSL)

Popular Alternatives